createdAt,value
2023-04-16T00:01:13.206Z,7.5
2023-04-16T00:03:14.725Z,7.4
2023-04-16T00:07:38.853Z,7.5
2023-04-16T00:09:40.260Z,7.5
2023-04-16T00:11:41.646Z,7.5
2023-04-16T00:13:46.368Z,7.5
2023-04-16T00:15:48.015Z,7.5
2023-04-16T00:17:49.216Z,7.5
2023-04-16T00:19:50.585Z,7.5
2023-04-16T00:21:51.988Z,7.6
2023-04-16T00:23:53.431Z,7.6
2023-04-16T00:25:56.405Z,7.6
2023-04-16T00:28:01.063Z,7.5
2023-04-16T00:30:02.520Z,7.5
2023-04-16T00:32:03.882Z,7.5
2023-04-16T00:36:06.678Z,7.5
2023-04-16T00:38:08.093Z,7.6
2023-04-16T00:40:09.498Z,7.6
2023-04-16T00:42:14.220Z,7.6
2023-04-16T00:44:15.632Z,7.5
2023-04-16T00:46:17.141Z,7.6
2023-04-16T00:48:18.445Z,7.6
2023-04-16T00:50:19.877Z,7.6
2023-04-16T00:52:21.304Z,7.6
2023-04-16T00:54:22.706Z,7.6
2023-04-16T00:56:27.435Z,7.6
2023-04-16T00:58:28.843Z,7.6
2023-04-16T01:01:32.626Z,7.6
2023-04-16T01:03:34.172Z,7.6
2023-04-16T01:05:35.477Z,7.6
2023-04-16T01:07:36.800Z,7.6
2023-04-16T01:09:41.501Z,7.7
2023-04-16T01:15:45.800Z,7.6
2023-04-16T01:17:47.227Z,7.7
2023-04-16T01:23:54.656Z,7.6
2023-04-16T01:25:56.074Z,7.7
2023-04-16T01:32:00.312Z,7.7
2023-04-16T01:36:03.125Z,7.7
2023-04-16T01:42:10.608Z,7.6
2023-04-16T01:48:14.840Z,7.6
2023-04-16T01:59:27.540Z,7.6
2023-04-16T02:03:30.605Z,7.7
2023-04-16T02:05:35.074Z,7.6
2023-04-16T02:09:37.944Z,7.6
2023-04-16T02:13:40.725Z,7.6
2023-04-16T02:15:42.123Z,7.6
2023-04-16T02:17:43.592Z,7.6
2023-04-16T02:25:52.467Z,7.7
2023-04-16T02:31:56.734Z,7.6
2023-04-16T02:34:01.429Z,7.6
2023-04-16T02:36:02.803Z,7.6
2023-04-16T02:38:04.250Z,7.6
2023-04-16T02:42:07.035Z,7.7
2023-04-16T02:46:09.931Z,7.6
2023-04-16T02:48:14.566Z,7.7
2023-04-16T02:50:15.991Z,7.6
2023-04-16T02:52:17.406Z,7.7
2023-04-16T02:53:19.742Z,7.6
2023-04-16T03:03:30.070Z,7.6
2023-04-16T03:23:47.428Z,7.6
2023-04-16T03:25:48.921Z,7.7
2023-04-16T03:27:50.284Z,7.7
2023-04-16T03:33:57.826Z,7.7
2023-04-16T03:35:59.249Z,7.7
2023-04-16T03:38:00.654Z,7.7
2023-04-16T03:42:03.488Z,7.7
2023-04-16T03:44:08.208Z,7.7
2023-04-16T03:46:09.600Z,7.7
2023-04-16T03:48:10.989Z,7.7
2023-04-16T03:50:31.825Z,7.7
2023-04-16T03:52:33.246Z,7.7
2023-04-16T03:54:34.644Z,7.7
2023-04-16T03:56:39.331Z,7.7
2023-04-16T03:58:40.742Z,7.7
2023-04-16T04:00:42.147Z,7.7
2023-04-16T04:02:43.789Z,7.7
2023-04-16T04:06:46.376Z,7.7
2023-04-16T04:08:47.804Z,7.7
2023-04-16T04:10:52.498Z,7.7
2023-04-16T04:20:59.555Z,7.7
2023-04-16T04:31:09.961Z,7.7
2023-04-16T04:33:11.351Z,7.7
2023-04-16T04:35:12.726Z,7.7
2023-04-16T04:37:14.147Z,7.7
2023-04-16T04:39:18.821Z,7.7
2023-04-16T04:41:20.247Z,7.7
2023-04-16T04:43:21.644Z,7.7
2023-04-16T04:48:26.884Z,7.7
2023-04-16T04:54:34.330Z,7.7
2023-04-16T04:56:35.712Z,7.7
2023-04-16T04:58:37.104Z,7.7
2023-04-16T05:00:40.104Z,7.7
2023-04-16T05:02:40.226Z,7.7
2023-04-16T05:04:41.394Z,7.7
2023-04-16T05:06:46.052Z,7.7
2023-04-16T05:08:47.454Z,7.7
2023-04-16T05:10:48.888Z,7.7
2023-04-16T05:12:50.293Z,7.7
2023-04-16T05:14:51.701Z,7.7
2023-04-16T05:16:53.174Z,7.7
2023-04-16T05:20:59.197Z,7.7
2023-04-16T05:37:13.742Z,7.8
2023-04-16T05:39:15.159Z,7.8
2023-04-16T05:40:17.497Z,7.8
2023-04-16T05:42:18.920Z,7.8
2023-04-16T05:44:20.349Z,7.8
2023-04-16T05:46:21.793Z,7.9
2023-04-16T05:48:26.435Z,7.9
2023-04-16T05:50:29.216Z,7.8
2023-04-16T05:52:29.267Z,7.9
2023-04-16T05:54:30.642Z,7.9
2023-04-16T05:58:33.492Z,7.9
2023-04-16T06:04:41.002Z,8
2023-04-16T06:06:42.870Z,8
2023-04-16T06:08:43.766Z,8
2023-04-16T06:10:45.174Z,8
2023-04-16T06:12:46.566Z,8.1
2023-04-16T06:14:48.000Z,8
2023-04-16T06:16:54.212Z,8.1
2023-04-16T06:22:58.454Z,8.1
2023-04-16T06:24:59.839Z,8.1
2023-04-16T06:27:01.271Z,8.1
2023-04-16T06:29:02.663Z,8.1
2023-04-16T06:31:07.368Z,8
2023-04-16T06:33:08.780Z,8
2023-04-16T06:35:10.195Z,7.9
2023-04-16T06:36:12.588Z,8
2023-04-16T06:38:13.977Z,8
2023-04-16T06:42:16.767Z,8
2023-04-16T06:44:21.481Z,7.9
2023-04-16T06:48:24.264Z,8
2023-04-16T06:50:25.657Z,7.9
2023-04-16T06:52:27.097Z,7.9
2023-04-16T06:54:28.487Z,8
2023-04-16T06:56:29.890Z,8
2023-04-16T06:58:34.610Z,8
2023-04-16T07:00:36.040Z,8
2023-04-16T07:02:37.518Z,8.1
2023-04-16T07:04:38.841Z,8.1
2023-04-16T07:06:40.248Z,8.1
2023-04-16T07:08:41.667Z,8.2
2023-04-16T07:10:43.098Z,8.1
2023-04-16T07:16:50.678Z,8.1
2023-04-16T07:20:53.420Z,8.1
2023-04-16T07:33:32.505Z,8.4
2023-04-16T07:35:34.319Z,8.4
2023-04-16T07:37:35.306Z,8.4
2023-04-16T07:39:40.066Z,8.4
2023-04-16T07:41:41.467Z,8.5
2023-04-16T07:45:44.314Z,8.4
2023-04-16T07:53:53.202Z,8.5
2023-04-16T07:55:54.700Z,8.5
2023-04-16T07:57:56.053Z,8.5
2023-04-16T07:59:57.459Z,8.6
2023-04-16T08:01:58.940Z,8.7
2023-04-16T08:04:00.495Z,8.6
2023-04-16T08:06:01.735Z,8.6
2023-04-16T08:12:09.223Z,8.7
2023-04-16T08:14:10.620Z,8.8
2023-04-16T08:16:12.160Z,8.8
2023-04-16T08:18:13.456Z,8.7
2023-04-16T08:22:19.571Z,8.7
2023-04-16T08:26:22.403Z,8.8
2023-04-16T08:27:24.790Z,8.8
2023-04-16T08:43:39.374Z,9
2023-04-16T08:45:40.790Z,9
2023-04-16T08:49:46.948Z,9.2
2023-04-16T08:51:48.304Z,9.2
2023-04-16T08:55:51.205Z,9.4
2023-04-16T08:57:52.596Z,9.6
2023-04-16T08:59:54.008Z,9.5
2023-04-16T09:08:02.963Z,9.6
2023-04-16T09:10:04.342Z,9.7
2023-04-16T09:20:14.716Z,10.2
2023-04-16T09:23:18.506Z,10.3
2023-04-16T09:27:21.304Z,10
2023-04-16T09:29:22.708Z,10.2
2023-04-16T09:31:27.508Z,10.1
2023-04-16T09:33:28.831Z,10
2023-04-16T09:41:34.480Z,11.7
2023-04-16T09:43:35.873Z,11.3
2023-04-16T09:49:43.447Z,11.9
2023-04-16T09:51:44.824Z,11.7
2023-04-16T09:53:46.241Z,11.6
2023-04-16T09:57:49.063Z,11.5
2023-04-16T09:59:53.780Z,11.6
2023-04-16T10:02:12.252Z,11.8
2023-04-16T10:03:56.673Z,12.1
2023-04-16T10:05:57.985Z,13
2023-04-16T10:21:14.085Z,11.9
2023-04-16T10:27:21.640Z,12
2023-04-16T10:29:23.022Z,12
2023-04-16T10:31:24.524Z,12.1
2023-04-16T10:33:25.826Z,12.4
2023-04-16T10:35:27.260Z,12.4
2023-04-16T10:39:30.055Z,12.4
2023-04-16T10:41:34.755Z,12.7
2023-04-16T10:47:39.027Z,12.8
2023-04-16T10:49:40.354Z,12.8
2023-04-16T10:51:41.785Z,12.9
2023-04-16T10:53:43.166Z,13.2
2023-04-16T10:55:47.894Z,13
2023-04-16T10:57:49.298Z,12.7
2023-04-16T10:59:50.704Z,12.8
2023-04-16T11:01:52.241Z,12.9
2023-04-16T11:03:53.708Z,13.2
2023-04-16T11:05:54.910Z,13.1
2023-04-16T11:07:56.291Z,12.8
2023-04-16T11:10:00.992Z,12.6
2023-04-16T11:12:02.417Z,12.4
2023-04-16T11:14:03.818Z,12.3
2023-04-16T11:16:26.779Z,13.1
2023-04-16T11:18:28.180Z,13.1
2023-04-16T11:20:29.576Z,13
2023-04-16T11:22:34.316Z,13
2023-04-16T11:24:35.710Z,12.9
2023-04-16T11:26:37.081Z,13
2023-04-16T11:28:38.528Z,12.9
2023-04-16T11:30:39.977Z,12.7
2023-04-16T11:32:41.327Z,13
2023-04-16T11:34:42.723Z,13.2
2023-04-16T11:36:47.396Z,13.2
2023-04-16T11:38:48.788Z,13.3
2023-04-16T11:46:54.504Z,12.9
2023-04-16T11:48:56.198Z,12.9
2023-04-16T11:51:00.534Z,13
2023-04-16T12:03:09.147Z,14.2
2023-04-16T12:07:16.561Z,13.3
2023-04-16T12:09:17.924Z,13.4
2023-04-16T12:14:23.123Z,13.9
2023-04-16T12:16:24.511Z,13.6
2023-04-16T12:18:29.221Z,13.4
2023-04-16T12:24:27.614Z,13.5
2023-04-16T12:26:28.996Z,13.4
2023-04-16T12:28:30.393Z,13.7
2023-04-16T12:30:31.866Z,13.2
2023-04-16T12:32:36.533Z,12.9
2023-04-16T12:34:48.755Z,12.9
2023-04-16T12:36:39.280Z,13.2
2023-04-16T12:38:40.658Z,13.2
2023-04-16T12:40:42.428Z,13.2
2023-04-16T12:42:43.458Z,13.1
2023-04-16T12:44:44.822Z,13.3
2023-04-16T12:46:49.632Z,13.5
2023-04-16T12:48:50.926Z,13.6
2023-04-16T12:50:52.299Z,13.6
2023-04-16T12:54:55.126Z,13.2
2023-04-16T12:58:57.915Z,13.3
2023-04-16T13:03:04.041Z,13.4
2023-04-16T13:06:07.739Z,13.9
2023-04-16T13:10:10.503Z,13.5
2023-04-16T13:12:11.875Z,13
2023-04-16T13:14:16.607Z,12.6
2023-04-16T13:18:19.427Z,12.7
2023-04-16T13:20:22.457Z,13.4
2023-04-16T13:22:22.237Z,13.9
2023-04-16T13:24:23.610Z,13.4
2023-04-16T13:28:29.699Z,13.9
2023-04-16T13:38:36.672Z,12.9
2023-04-16T13:52:49.743Z,13.6
2023-04-16T13:54:51.175Z,13.5
2023-04-16T13:56:55.838Z,13.1
2023-04-16T13:58:57.227Z,13
2023-04-16T14:00:58.690Z,12.8
2023-04-16T14:02:00.988Z,12.6
2023-04-16T14:12:11.282Z,12.7
2023-04-16T14:14:12.646Z,12.9
2023-04-16T14:16:14.092Z,13
2023-04-16T14:18:15.484Z,13.2
2023-04-16T14:20:16.875Z,13.4
2023-04-16T14:22:18.268Z,13.4
2023-04-16T14:54:50.726Z,11.7
2023-04-16T14:56:52.111Z,11.7
2023-04-16T14:59:15.168Z,11.6
2023-04-16T15:01:16.620Z,11.6
2023-04-16T15:03:18.180Z,11.5
2023-04-16T15:05:22.738Z,11.6
2023-04-16T15:07:24.158Z,11.8
2023-04-16T15:09:25.533Z,12.2
2023-04-16T15:11:26.960Z,12.3
2023-04-16T15:13:28.400Z,12.1
2023-04-16T15:15:29.807Z,12.2
2023-04-16T15:23:38.701Z,12.6
2023-04-16T15:25:40.203Z,12.4
2023-04-16T15:27:41.542Z,12.2
2023-04-16T15:29:42.941Z,12.2
2023-04-16T15:31:44.392Z,12.1
2023-04-16T15:33:49.029Z,12.3
2023-04-16T15:39:53.250Z,12.1
2023-04-16T15:43:56.028Z,11.9
2023-04-16T15:52:05.009Z,11.5
2023-04-16T15:53:07.347Z,11.9
2023-04-16T15:55:08.769Z,11.9
2023-04-16T15:57:10.197Z,12.3
2023-04-16T15:59:11.728Z,13.8
2023-04-16T16:01:16.381Z,12.4
2023-04-16T16:03:17.887Z,12
2023-04-16T16:05:19.119Z,11.7
2023-04-16T16:07:20.528Z,11.6
2023-04-16T16:09:21.912Z,11.7
2023-04-16T16:13:24.739Z,11.5
2023-04-16T16:15:29.471Z,11.4
2023-04-16T16:17:30.959Z,11.4
2023-04-16T16:23:35.094Z,11.4
2023-04-16T16:37:48.252Z,11.1
2023-04-16T16:39:49.679Z,11.1
2023-04-16T16:41:51.091Z,11.2
2023-04-16T16:43:55.782Z,11.2
2023-04-16T16:45:57.204Z,11.2
2023-04-16T16:47:58.679Z,11.1
2023-04-16T17:07:16.964Z,10.6
2023-04-16T17:09:18.435Z,10.5
2023-04-16T17:13:24.541Z,10.7
2023-04-16T17:15:25.963Z,10.7
2023-04-16T17:17:27.374Z,10.9
2023-04-16T17:19:28.793Z,11.1
2023-04-16T17:21:30.168Z,11.2
2023-04-16T17:25:36.395Z,10.9
2023-04-16T17:31:40.585Z,10.8
2023-04-16T17:33:41.965Z,10.7
2023-04-16T17:44:54.710Z,10.4
2023-04-16T17:46:56.105Z,10.3
2023-04-16T17:48:57.478Z,10.3
2023-04-16T17:50:58.887Z,10.3
2023-04-16T17:55:06.618Z,10.2
2023-04-16T17:59:09.383Z,10.1
2023-04-16T18:05:13.625Z,10
2023-04-16T18:07:18.321Z,10
2023-04-16T18:09:19.750Z,10
2023-04-16T18:11:21.147Z,10
2023-04-16T18:15:23.946Z,10
2023-04-16T18:17:25.381Z,10
2023-04-16T18:19:26.786Z,9.9
2023-04-16T18:21:31.549Z,9.9
2023-04-16T18:23:32.893Z,9.9
2023-04-16T18:25:35.473Z,9.9
2023-04-16T18:27:35.730Z,9.9
2023-04-16T18:29:39.665Z,9.8
2023-04-16T18:31:38.660Z,9.8
2023-04-16T18:33:55.776Z,9.8
2023-04-16T18:35:44.681Z,9.8
2023-04-16T18:37:46.101Z,9.7
2023-04-16T18:39:47.533Z,9.7
2023-04-16T18:42:16.232Z,9.7
2023-04-16T18:44:17.642Z,9.7
2023-04-16T18:46:19.103Z,9.7
2023-04-16T18:48:23.750Z,9.7
2023-04-16T18:50:25.178Z,9.6
2023-04-16T18:52:26.565Z,9.6
2023-04-16T18:54:28.038Z,9.6
2023-04-16T18:56:29.381Z,9.6
2023-04-16T18:58:30.808Z,9.6
2023-04-16T19:04:38.435Z,9.5
2023-04-16T19:06:39.782Z,9.5
2023-04-16T19:08:41.174Z,9.6
2023-04-16T19:10:42.599Z,9.5
2023-04-16T19:14:45.394Z,9.5
2023-04-16T19:18:51.537Z,9.5
2023-04-16T19:20:52.937Z,9.4
2023-04-16T19:22:54.366Z,9.5
2023-04-16T19:24:55.803Z,9.5
2023-04-16T19:26:57.197Z,9.4
2023-04-16T19:28:58.613Z,9.4
2023-04-16T19:31:03.370Z,9.4
2023-04-16T19:35:06.150Z,9.4
2023-04-16T19:36:08.466Z,9.4
2023-04-16T19:44:17.426Z,9.4
2023-04-16T19:46:18.899Z,9.3
2023-04-16T19:48:20.220Z,9.3
2023-04-16T19:52:23.081Z,9.3
2023-04-16T19:54:24.487Z,9.4
2023-04-16T19:56:25.896Z,9.3
2023-04-16T19:58:30.637Z,9.3
2023-04-16T20:08:37.708Z,9.3
2023-04-16T20:16:46.668Z,9.2
2023-04-16T20:18:48.064Z,9.2
2023-04-16T20:24:52.296Z,9.2
2023-04-16T20:26:56.978Z,9.2
2023-04-16T20:28:58.388Z,9.2
2023-04-16T20:30:59.818Z,9.2
2023-04-16T20:32:02.217Z,9.2
2023-04-16T20:34:03.625Z,9.2
2023-04-16T20:36:05.008Z,9.1
2023-04-16T20:38:06.423Z,9.2
2023-04-16T20:44:13.934Z,9.1
2023-04-16T20:48:16.815Z,9.1
2023-04-16T20:50:18.156Z,9
2023-04-16T20:52:19.572Z,9
2023-04-16T20:54:24.278Z,9
2023-04-16T20:56:25.682Z,9
2023-04-16T20:58:27.124Z,8.9
2023-04-16T21:00:28.519Z,8.9
2023-04-16T21:02:30.147Z,8.8
2023-04-16T21:04:31.558Z,8.8
2023-04-16T21:08:37.511Z,8.8
2023-04-16T21:10:38.898Z,8.7
2023-04-16T21:14:41.717Z,8.7
2023-04-16T21:16:43.113Z,8.7
2023-04-16T21:18:44.499Z,8.7
2023-04-16T21:20:46.033Z,8.6
2023-04-16T21:22:50.637Z,8.6
2023-04-16T21:24:52.017Z,8.6
2023-04-16T21:26:53.475Z,8.6
2023-04-16T21:27:55.804Z,8.5
2023-04-16T22:02:26.517Z,8.4
2023-04-16T22:04:31.070Z,8.3
2023-04-16T22:06:32.522Z,8.3
2023-04-16T22:16:39.646Z,8.3
2023-04-16T22:18:44.217Z,8.2
2023-04-16T22:20:45.646Z,8.3
2023-04-16T22:22:47.032Z,8.3
2023-04-16T22:29:06.664Z,8.3
2023-04-16T22:35:14.170Z,8.3
2023-04-16T22:37:15.578Z,8.2
2023-04-16T22:39:16.981Z,8.2
2023-04-16T22:41:18.387Z,8.1
2023-04-16T22:43:19.780Z,8.2
2023-04-16T22:45:24.534Z,8.1
2023-04-16T22:47:25.973Z,8.1
2023-04-16T22:49:27.335Z,8.1
2023-04-16T22:51:28.758Z,8.1
2023-04-16T22:53:30.149Z,8
2023-04-16T22:57:33.481Z,8
2023-04-16T22:59:37.671Z,8
2023-04-16T23:01:39.109Z,8
2023-04-16T23:03:40.562Z,8
2023-04-16T23:05:41.875Z,7.9
2023-04-16T23:07:43.260Z,7.9
2023-04-16T23:09:44.692Z,7.8
2023-04-16T23:11:46.084Z,7.8
2023-04-16T23:13:50.790Z,7.8
2023-04-16T23:15:52.226Z,7.8
2023-04-16T23:17:53.728Z,7.8
2023-04-16T23:18:55.958Z,7.7
2023-04-16T23:25:00.174Z,7.8
2023-04-16T23:31:07.769Z,7.8
